createdAt,value
2023-03-14T00:01:54.305Z,68.25
2023-03-14T00:04:25.981Z,67.83
2023-03-14T00:06:57.042Z,67.87
2023-03-14T00:09:31.263Z,68.37
2023-03-14T00:12:02.246Z,69.16
2023-03-14T00:14:34.586Z,68.63
2023-03-14T00:17:05.879Z,67.33
2023-03-14T00:19:37.737Z,67.17
2023-03-14T00:22:09.046Z,69.12
2023-03-14T00:24:42.320Z,66.91
2023-03-14T00:27:16.397Z,68.36
2023-03-14T00:29:48.212Z,69.17
2023-03-14T00:32:33.597Z,67.44
2023-03-14T00:35:11.027Z,68.49
2023-03-14T00:37:43.475Z,67.58
2023-03-14T00:40:19.168Z,68.56
2023-03-14T00:42:49.100Z,69.00
2023-03-14T00:45:23.764Z,68.40
2023-03-14T00:47:56.192Z,68.47
2023-03-14T00:50:27.184Z,68.88
2023-03-14T00:52:57.804Z,68.58
2023-03-14T00:55:30.241Z,68.83
2023-03-14T00:58:02.144Z,68.71
2023-03-14T01:00:33.787Z,67.30
2023-03-14T01:03:07.027Z,68.75
2023-03-14T01:05:37.532Z,67.58
2023-03-14T01:08:09.698Z,67.67
2023-03-14T01:10:43.198Z,68.48
2023-03-14T01:13:14.708Z,67.25
2023-03-14T01:15:47.141Z,68.07
2023-03-14T01:18:17.585Z,69.57
2023-03-14T01:20:48.814Z,68.69
2023-03-14T01:23:19.671Z,67.32
2023-03-14T01:25:56.731Z,69.17
2023-03-14T01:28:28.775Z,68.79
2023-03-14T01:31:00.948Z,69.65
2023-03-14T01:33:33.208Z,68.05
2023-03-14T01:36:05.312Z,68.53
2023-03-14T01:38:38.937Z,68.46
2023-03-14T01:41:18.148Z,68.19
2023-03-14T01:43:50.686Z,69.43
2023-03-14T01:46:32.503Z,68.04
2023-03-14T01:49:17.197Z,68.83
2023-03-14T01:51:53.460Z,67.89
2023-03-14T01:54:29.215Z,68.63
2023-03-14T01:57:10.595Z,68.66
2023-03-14T01:59:42.035Z,69.79
2023-03-14T02:02:15.960Z,68.14
2023-03-14T02:04:49.691Z,68.80
2023-03-14T02:07:26.790Z,69.91
2023-03-14T02:09:58.482Z,71.11
2023-03-14T02:12:32.717Z,69.40
2023-03-14T02:15:08.256Z,69.36
2023-03-14T02:17:38.979Z,71.32
2023-03-14T02:20:28.517Z,70.56
2023-03-14T02:23:00.112Z,71.26
2023-03-14T02:25:38.810Z,71.57
2023-03-14T02:28:10.970Z,70.58
2023-03-14T02:30:43.164Z,69.79
2023-03-14T02:33:19.494Z,71.45
2023-03-14T02:35:53.767Z,71.49
2023-03-14T02:38:28.496Z,73.79
2023-03-14T02:41:02.674Z,73.00
2023-03-14T02:43:41.086Z,73.70
2023-03-14T02:46:13.962Z,72.04
2023-03-14T02:48:48.802Z,70.93
2023-03-14T02:51:20.354Z,72.97
2023-03-14T02:53:53.417Z,73.35
2023-03-14T02:56:25.523Z,71.55
2023-03-14T02:58:58.957Z,72.43
2023-03-14T03:01:29.508Z,72.03
2023-03-14T03:03:59.604Z,72.52
2023-03-14T03:06:33.116Z,73.05
2023-03-14T03:09:04.203Z,71.93
2023-03-14T03:11:38.392Z,73.39
2023-03-14T03:14:11.097Z,72.34
2023-03-14T03:16:43.683Z,71.97
2023-03-14T03:19:15.067Z,72.02
2023-03-14T03:21:46.170Z,71.52
2023-03-14T03:24:16.888Z,71.91
2023-03-14T03:26:50.088Z,72.53
2023-03-14T03:29:23.775Z,73.46
2023-03-14T03:31:54.536Z,74.29
2023-03-14T03:34:25.767Z,73.04
2023-03-14T03:36:59.801Z,72.69
2023-03-14T03:39:31.322Z,75.36
2023-03-14T03:42:01.895Z,73.90
2023-03-14T03:44:35.912Z,72.54
2023-03-14T03:47:11.017Z,71.30
2023-03-14T03:49:42.711Z,73.88
2023-03-14T03:52:14.844Z,74.58
2023-03-14T03:54:45.969Z,74.28
2023-03-14T03:57:16.780Z,71.83
2023-03-14T03:59:50.196Z,71.91
2023-03-14T04:02:22.467Z,75.37
2023-03-14T04:04:53.252Z,73.39
2023-03-14T04:07:26.714Z,73.20
2023-03-14T04:09:59.374Z,72.54
2023-03-14T04:12:30.282Z,71.65
2023-03-14T04:15:07.678Z,74.17
2023-03-14T04:17:39.879Z,74.82
2023-03-14T04:20:14.233Z,73.32
2023-03-14T04:22:46.374Z,75.63
2023-03-14T04:25:19.283Z,74.30
2023-03-14T04:27:53.388Z,72.76
2023-03-14T04:30:30.531Z,75.08
2023-03-14T04:33:05.276Z,75.51
2023-03-14T04:35:36.797Z,74.73
2023-03-14T04:38:08.551Z,76.72
2023-03-14T04:40:43.566Z,77.54
2023-03-14T04:43:14.456Z,77.47
2023-03-14T04:45:50.030Z,76.48
2023-03-14T04:48:28.443Z,79.53
2023-03-14T04:51:02.252Z,78.06
2023-03-14T04:53:35.690Z,78.78
2023-03-14T04:56:07.161Z,77.44
2023-03-14T04:58:38.677Z,77.73
2023-03-14T05:01:13.010Z,77.60
2023-03-14T05:03:44.861Z,77.49
2023-03-14T05:06:18.892Z,78.16
2023-03-14T05:08:49.931Z,77.74
2023-03-14T05:11:23.579Z,77.27
2023-03-14T05:13:54.269Z,76.95
2023-03-14T05:16:26.849Z,79.80
2023-03-14T05:18:58.531Z,76.61
2023-03-14T05:21:31.138Z,77.69
2023-03-14T05:24:03.172Z,77.84
2023-03-14T05:26:34.722Z,79.44
2023-03-14T05:29:07.421Z,77.21
2023-03-14T05:31:39.311Z,76.99
2023-03-14T05:34:11.318Z,79.40
2023-03-14T05:36:42.746Z,78.58
2023-03-14T05:39:14.105Z,77.91
2023-03-14T05:41:45.140Z,76.84
2023-03-14T05:44:16.137Z,77.07
2023-03-14T05:46:49.160Z,77.64
2023-03-14T05:49:19.520Z,76.70
2023-03-14T05:51:50.727Z,77.70
2023-03-14T05:54:22.811Z,77.70
2023-03-14T05:56:53.396Z,77.53
2023-03-14T05:59:24.505Z,78.67
2023-03-14T06:01:56.771Z,76.95
2023-03-14T06:04:26.859Z,78.32
2023-03-14T06:06:58.451Z,77.79
2023-03-14T06:09:29.755Z,76.27
2023-03-14T06:12:01.469Z,79.87
2023-03-14T06:14:31.782Z,78.71
2023-03-14T06:17:04.429Z,78.08
2023-03-14T06:19:36.518Z,78.01
2023-03-14T06:22:06.734Z,80.92
2023-03-14T06:24:45.923Z,77.14
2023-03-14T06:27:16.850Z,77.14
2023-03-14T06:29:49.758Z,78.23
2023-03-14T06:32:22.463Z,78.60
2023-03-14T06:34:58.782Z,76.65
2023-03-14T06:37:33.393Z,78.43
2023-03-14T06:40:07.364Z,79.33
2023-03-14T06:42:38.904Z,78.96
2023-03-14T06:45:12.958Z,81.20
2023-03-14T06:47:47.481Z,79.37
2023-03-14T06:50:24.039Z,79.87
2023-03-14T06:52:58.573Z,85.53
2023-03-14T06:55:31.920Z,78.73
2023-03-14T06:58:03.429Z,78.23
2023-03-14T07:00:35.999Z,81.18
2023-03-14T07:03:12.952Z,79.52
2023-03-14T07:05:45.123Z,80.04
2023-03-14T07:08:17.676Z,79.05
2023-03-14T07:10:50.768Z,79.33
2023-03-14T07:13:23.330Z,80.29
2023-03-14T07:15:56.932Z,85.95
2023-03-14T07:18:30.600Z,80.62
2023-03-14T07:21:01.592Z,83.57
2023-03-14T07:23:32.678Z,85.64
2023-03-14T07:26:03.788Z,84.37
2023-03-14T07:28:36.525Z,86.20
2023-03-14T07:31:11.092Z,84.68
2023-03-14T07:33:47.728Z,86.35
2023-03-14T07:36:22.491Z,82.53
2023-03-14T07:38:56.530Z,80.75
2023-03-14T07:41:30.621Z,81.34
2023-03-14T07:44:02.934Z,88.14
2023-03-14T07:46:37.649Z,86.35
2023-03-14T07:49:11.931Z,88.97
2023-03-14T07:51:42.963Z,88.89
2023-03-14T07:54:16.010Z,88.98
2023-03-14T07:56:48.890Z,86.86
2023-03-14T07:59:24.082Z,86.92
2023-03-14T08:01:55.814Z,83.80
2023-03-14T08:04:29.214Z,81.91
2023-03-14T08:07:03.891Z,82.48
2023-03-14T08:09:34.787Z,80.06
2023-03-14T08:12:06.555Z,80.78
2023-03-14T08:14:38.160Z,81.18
2023-03-14T08:17:09.623Z,78.19
2023-03-14T08:19:45.332Z,79.63
2023-03-14T08:22:20.113Z,79.46
2023-03-14T08:24:52.337Z,77.69
2023-03-14T08:27:24.121Z,77.13
2023-03-14T08:29:57.552Z,76.77
2023-03-14T08:32:27.972Z,77.38
2023-03-14T08:35:01.314Z,77.44
2023-03-14T08:37:34.960Z,77.17
2023-03-14T08:40:09.400Z,75.60
2023-03-14T08:42:40.827Z,75.91
2023-03-14T08:45:15.898Z,74.98
2023-03-14T08:47:49.375Z,75.33
2023-03-14T08:50:25.341Z,75.46
2023-03-14T08:53:01.639Z,75.71
2023-03-14T08:55:32.207Z,75.32
2023-03-14T08:58:03.197Z,73.87
2023-03-14T09:00:33.617Z,73.03
2023-03-14T09:03:04.640Z,72.58
2023-03-14T09:05:39.204Z,70.15
2023-03-14T09:08:09.559Z,69.49
2023-03-14T09:10:41.221Z,67.12
2023-03-14T09:13:12.666Z,68.27
2023-03-14T09:15:43.667Z,69.05
2023-03-14T09:18:14.240Z,66.68
2023-03-14T09:20:46.665Z,65.80
2023-03-14T09:23:17.922Z,65.51
2023-03-14T09:25:48.132Z,63.30
2023-03-14T09:28:19.968Z,64.90
2023-03-14T09:30:50.878Z,63.98
2023-03-14T09:33:21.889Z,64.48
2023-03-14T09:35:55.167Z,64.19
2023-03-14T09:38:29.069Z,61.00
2023-03-14T09:41:02.358Z,60.92
2023-03-14T09:43:35.635Z,60.72
2023-03-14T09:46:07.093Z,60.27
2023-03-14T09:48:39.146Z,60.50
2023-03-14T09:51:17.943Z,61.02
2023-03-14T09:53:50.229Z,61.16
2023-03-14T09:56:23.459Z,61.24
2023-03-14T09:58:56.334Z,60.42
2023-03-14T10:01:32.395Z,60.64
2023-03-14T10:04:08.202Z,61.55
2023-03-14T10:06:40.380Z,59.79
2023-03-14T10:09:14.282Z,58.62
2023-03-14T10:11:45.927Z,59.66
2023-03-14T10:14:32.728Z,58.54
2023-03-14T10:17:11.671Z,56.89
2023-03-14T10:19:55.980Z,57.61
2023-03-14T10:22:33.054Z,57.56
2023-03-14T10:25:06.051Z,58.19
2023-03-14T10:27:38.647Z,59.11
2023-03-14T10:30:11.157Z,58.69
2023-03-14T10:32:50.229Z,56.62
2023-03-14T10:35:25.763Z,57.37
2023-03-14T10:38:00.849Z,54.76
2023-03-14T10:40:35.766Z,56.43
2023-03-14T10:43:22.781Z,57.32
2023-03-14T10:45:59.507Z,58.44
2023-03-14T10:48:35.539Z,58.54
2023-03-14T10:51:08.884Z,52.58
2023-03-14T10:53:49.918Z,53.63
2023-03-14T10:56:22.535Z,53.35
2023-03-14T10:58:54.958Z,51.33
2023-03-14T11:01:38.601Z,48.71
2023-03-14T11:04:21.182Z,47.43
2023-03-14T11:07:03.395Z,46.12
2023-03-14T11:09:42.983Z,44.65
2023-03-14T11:12:30.328Z,44.56
2023-03-14T11:15:06.226Z,46.15
2023-03-14T11:17:43.185Z,45.69
2023-03-14T11:20:35.204Z,46.54
2023-03-14T11:23:12.575Z,46.72
2023-03-14T11:25:51.040Z,44.97
2023-03-14T11:28:29.414Z,44.87
2023-03-14T11:31:07.714Z,46.06
2023-03-14T11:33:41.435Z,44.57
2023-03-14T11:36:12.432Z,45.14
2023-03-14T11:38:46.470Z,43.62
2023-03-14T11:41:21.478Z,43.15
2023-03-14T11:43:55.237Z,43.87
2023-03-14T11:46:29.162Z,40.76
2023-03-14T11:49:07.393Z,40.91
2023-03-14T11:51:40.896Z,40.40
2023-03-14T11:54:18.282Z,41.14
2023-03-14T11:56:54.572Z,40.98
2023-03-14T11:59:40.993Z,41.02
2023-03-14T12:02:19.637Z,40.76
2023-03-14T12:05:06.970Z,40.31
2023-03-14T12:07:43.202Z,41.21
2023-03-14T12:10:14.323Z,40.80
2023-03-14T12:12:47.297Z,42.31
2023-03-14T12:15:26.451Z,40.20
2023-03-14T12:17:59.969Z,39.56
2023-03-14T12:20:31.419Z,42.63
2023-03-14T12:23:07.750Z,42.33
2023-03-14T12:25:38.641Z,41.84
2023-03-14T12:28:22.285Z,41.61
2023-03-14T12:30:55.278Z,41.10
2023-03-14T12:33:45.235Z,40.82
2023-03-14T12:36:51.755Z,40.36
2023-03-14T12:39:34.473Z,41.15
2023-03-14T12:42:07.392Z,40.39
2023-03-14T12:44:48.600Z,41.20
2023-03-14T12:47:58.788Z,42.36
2023-03-14T12:50:42.829Z,41.85
2023-03-14T12:53:42.310Z,42.20
2023-03-14T12:56:26.069Z,42.57
2023-03-14T12:59:19.795Z,42.89
2023-03-14T13:01:57.964Z,43.31
2023-03-14T13:04:42.692Z,44.35
2023-03-14T13:07:16.991Z,45.00
2023-03-14T13:09:58.324Z,45.70
2023-03-14T13:12:37.661Z,45.46
2023-03-14T13:15:20.131Z,46.76
2023-03-14T13:17:53.130Z,46.51
2023-03-14T13:20:30.483Z,45.87
2023-03-14T13:23:01.045Z,46.44
2023-03-14T13:25:35.180Z,47.27
2023-03-14T13:28:05.983Z,47.27
2023-03-14T13:30:44.201Z,47.54
2023-03-14T13:33:22.391Z,48.50
2023-03-14T13:35:57.523Z,47.99
2023-03-14T13:38:28.978Z,47.86
2023-03-14T13:41:01.402Z,47.46
2023-03-14T13:43:35.599Z,47.95
2023-03-14T13:46:09.091Z,48.12
2023-03-14T13:48:46.264Z,47.48
2023-03-14T13:51:19.523Z,47.32
2023-03-14T13:53:51.948Z,47.45
2023-03-14T13:56:24.312Z,47.79
2023-03-14T13:58:54.636Z,48.25
2023-03-14T14:01:27.418Z,48.39
2023-03-14T14:04:00.925Z,47.17
2023-03-14T14:06:33.798Z,47.99
2023-03-14T14:09:06.401Z,48.04
2023-03-14T14:12:03.916Z,47.81
2023-03-14T14:14:42.766Z,48.73
2023-03-14T14:17:15.917Z,47.37
2023-03-14T14:19:47.790Z,47.77
2023-03-14T14:22:19.144Z,48.22
2023-03-14T14:24:53.398Z,48.03
2023-03-14T14:27:32.926Z,48.13
2023-03-14T14:30:05.452Z,48.76
2023-03-14T14:32:41.128Z,47.79
2023-03-14T14:35:26.175Z,48.28
2023-03-14T14:37:56.889Z,48.26
2023-03-14T14:40:29.889Z,48.74
2023-03-14T14:43:07.032Z,48.84
2023-03-14T14:45:38.259Z,48.56
2023-03-14T14:48:13.062Z,48.26
2023-03-14T14:51:02.572Z,48.23
2023-03-14T14:53:38.975Z,48.16
2023-03-14T14:56:18.252Z,48.18
2023-03-14T14:58:50.287Z,47.88
2023-03-14T15:01:22.292Z,46.69
2023-03-14T15:03:54.870Z,47.21
2023-03-14T15:06:32.738Z,46.51
2023-03-14T15:09:04.544Z,46.14
2023-03-14T15:11:35.593Z,47.07
2023-03-14T15:14:08.921Z,46.98
2023-03-14T15:16:42.604Z,46.78
2023-03-14T15:19:25.440Z,46.53
2023-03-14T15:21:58.362Z,47.00
2023-03-14T15:24:28.925Z,47.60
2023-03-14T15:27:01.123Z,46.94
2023-03-14T15:29:32.227Z,45.87
2023-03-14T15:32:02.914Z,46.63
2023-03-14T15:34:34.720Z,47.10
2023-03-14T15:37:14.146Z,46.20
2023-03-14T15:39:44.749Z,47.48
2023-03-14T15:42:16.256Z,46.69
2023-03-14T15:44:46.661Z,47.05
2023-03-14T15:47:18.426Z,48.04
2023-03-14T15:49:49.224Z,47.76
2023-03-14T15:52:22.650Z,48.63
2023-03-14T15:54:54.068Z,47.48
2023-03-14T15:57:26.623Z,47.58
2023-03-14T15:59:57.969Z,47.79
2023-03-14T16:02:29.345Z,47.73
2023-03-14T16:05:01.268Z,47.37
2023-03-14T16:07:34.605Z,47.28
2023-03-14T16:10:06.743Z,48.20
2023-03-14T16:12:41.323Z,47.79
2023-03-14T16:15:13.938Z,48.08
2023-03-14T16:17:44.976Z,48.87
2023-03-14T16:20:16.511Z,49.06
2023-03-14T16:22:48.921Z,49.34
2023-03-14T16:25:21.187Z,48.56
2023-03-14T16:28:05.186Z,50.63
2023-03-14T16:30:41.563Z,48.68
2023-03-14T16:33:13.254Z,49.11
2023-03-14T16:35:57.499Z,48.56
2023-03-14T16:41:24.519Z,48.93
2023-03-14T16:43:56.698Z,49.73
2023-03-14T16:46:29.664Z,50.10
2023-03-14T16:49:01.577Z,50.19
2023-03-14T16:51:33.636Z,51.91
2023-03-14T16:54:06.114Z,51.35
2023-03-14T16:56:37.992Z,52.49
2023-03-14T16:59:09.906Z,52.42
2023-03-14T17:01:41.628Z,52.55
2023-03-14T17:04:12.343Z,52.42
2023-03-14T17:06:45.111Z,52.66
2023-03-14T17:09:17.580Z,53.65
2023-03-14T17:11:52.427Z,52.97
2023-03-14T17:14:24.877Z,53.33
2023-03-14T17:16:55.906Z,52.69
2023-03-14T17:19:29.339Z,51.97
2023-03-14T17:22:21.325Z,52.54
2023-03-14T17:24:53.234Z,51.84
2023-03-14T17:27:23.932Z,52.58
2023-03-14T17:29:54.387Z,53.34
2023-03-14T17:32:27.248Z,54.83
2023-03-14T17:34:57.954Z,53.50
2023-03-14T17:37:29.038Z,54.76
2023-03-14T17:40:04.691Z,54.49
2023-03-14T17:42:39.940Z,54.34
2023-03-14T17:45:12.009Z,54.68
2023-03-14T17:47:44.420Z,55.23
2023-03-14T17:50:15.950Z,54.97
2023-03-14T17:52:46.797Z,54.77
2023-03-14T17:55:20.187Z,53.53
2023-03-14T17:57:52.144Z,53.55
2023-03-14T18:00:27.622Z,54.75
2023-03-14T18:02:59.746Z,55.42
2023-03-14T18:05:32.458Z,55.12
2023-03-14T18:08:04.053Z,56.13
2023-03-14T18:10:36.581Z,55.18
2023-03-14T18:13:07.666Z,54.04
2023-03-14T18:15:38.847Z,55.14
2023-03-14T18:18:11.439Z,56.29
2023-03-14T18:20:54.571Z,57.89
2023-03-14T18:23:25.964Z,57.34
2023-03-14T18:26:02.379Z,56.70
2023-03-14T18:28:33.146Z,54.25
2023-03-14T18:31:04.994Z,56.27
2023-03-14T18:33:40.607Z,57.23
2023-03-14T18:36:13.398Z,57.30
2023-03-14T18:38:46.354Z,57.61
2023-03-14T18:41:20.441Z,57.60
2023-03-14T18:43:52.901Z,56.30
2023-03-14T18:46:24.692Z,56.95
2023-03-14T18:48:58.303Z,58.20
2023-03-14T18:51:31.242Z,56.33
2023-03-14T18:54:09.310Z,56.84
2023-03-14T18:56:43.284Z,56.88
2023-03-14T18:59:14.219Z,56.36
2023-03-14T19:01:44.781Z,57.60
2023-03-14T19:04:15.518Z,58.15
2023-03-14T19:06:45.607Z,61.70
2023-03-14T19:09:17.748Z,61.47
2023-03-14T19:11:55.168Z,61.03
2023-03-14T19:14:26.258Z,61.91
2023-03-14T19:16:57.011Z,64.01
2023-03-14T19:19:28.560Z,65.18
2023-03-14T19:21:59.840Z,64.66
2023-03-14T19:24:30.221Z,66.03
2023-03-14T19:27:01.670Z,67.20
2023-03-14T19:29:35.828Z,67.14
2023-03-14T19:32:07.026Z,66.72
2023-03-14T19:34:38.417Z,66.52
2023-03-14T19:37:09.282Z,67.73
2023-03-14T19:39:39.950Z,66.54
2023-03-14T19:42:13.014Z,67.76
2023-03-14T19:44:45.069Z,65.98
2023-03-14T19:47:17.026Z,63.98
2023-03-14T19:49:47.814Z,63.31
2023-03-14T19:52:21.271Z,66.47
2023-03-14T19:54:53.558Z,65.14
2023-03-14T19:57:26.653Z,63.63
2023-03-14T19:59:58.495Z,61.97
2023-03-14T20:02:29.695Z,62.95
2023-03-14T20:05:02.993Z,57.56
2023-03-14T20:07:34.920Z,57.18
2023-03-14T20:10:11.846Z,54.57
2023-03-14T20:12:56.561Z,55.50
2023-03-14T20:15:29.040Z,56.14
2023-03-14T20:17:59.774Z,57.39
2023-03-14T20:20:31.930Z,57.57
2023-03-14T20:23:08.026Z,58.86
2023-03-14T20:25:40.084Z,59.16
2023-03-14T20:28:20.431Z,58.43
2023-03-14T20:30:54.418Z,61.23
2023-03-14T20:33:25.169Z,56.04
2023-03-14T20:35:59.763Z,55.88
2023-03-14T20:38:31.718Z,54.21
2023-03-14T20:41:02.582Z,55.06
2023-03-14T20:43:35.356Z,52.24
2023-03-14T20:46:06.439Z,51.97
2023-03-14T20:48:39.801Z,51.77
2023-03-14T20:51:12.909Z,52.68
2023-03-14T20:53:45.444Z,49.23
2023-03-14T20:56:15.597Z,49.24
2023-03-14T20:58:49.245Z,50.40
2023-03-14T21:01:20.603Z,51.13
2023-03-14T21:03:50.561Z,49.92
2023-03-14T21:06:22.456Z,48.60
2023-03-14T21:08:53.350Z,48.75
2023-03-14T21:11:23.661Z,49.81
2023-03-14T21:13:56.609Z,48.22
2023-03-14T21:16:28.442Z,47.49
2023-03-14T21:18:58.895Z,49.88
2023-03-14T21:21:29.618Z,49.34
2023-03-14T21:24:02.951Z,48.73
2023-03-14T21:26:35.666Z,48.63
2023-03-14T21:29:08.045Z,49.13
2023-03-14T21:31:41.874Z,50.00
2023-03-14T21:34:18.255Z,49.91
2023-03-14T21:36:50.767Z,48.73
2023-03-14T21:39:24.504Z,48.33
2023-03-14T21:41:55.920Z,49.44
2023-03-14T21:44:37.481Z,49.38
2023-03-14T21:47:09.071Z,49.90
2023-03-14T21:49:45.343Z,47.23
2023-03-14T21:52:18.130Z,46.52
2023-03-14T21:54:50.241Z,46.62
2023-03-14T21:57:31.478Z,45.91
2023-03-14T22:00:08.741Z,47.09
2023-03-14T22:02:44.092Z,47.23
2023-03-14T22:05:21.634Z,48.23
2023-03-14T22:07:53.200Z,46.08
2023-03-14T22:10:24.081Z,47.03
2023-03-14T22:12:58.200Z,45.52
2023-03-14T22:15:32.216Z,47.78
2023-03-14T22:18:05.810Z,45.35
2023-03-14T22:20:38.796Z,45.96
2023-03-14T22:23:10.450Z,46.82
2023-03-14T22:25:44.365Z,46.02
2023-03-14T22:28:16.431Z,46.73
2023-03-14T22:30:53.065Z,46.67
2023-03-14T22:33:26.813Z,47.00
2023-03-14T22:35:59.488Z,45.82
2023-03-14T22:38:33.653Z,45.66
2023-03-14T22:41:05.803Z,43.86
2023-03-14T22:43:36.997Z,43.49
2023-03-14T22:46:11.604Z,44.52
2023-03-14T22:48:43.819Z,45.27
2023-03-14T22:51:17.191Z,44.52
2023-03-14T22:53:48.174Z,43.74
2023-03-14T22:56:21.773Z,41.60
2023-03-14T22:58:53.670Z,42.75
2023-03-14T23:01:28.049Z,41.10
2023-03-14T23:03:58.780Z,40.25
2023-03-14T23:06:29.657Z,39.34
2023-03-14T23:09:02.653Z,39.66
2023-03-14T23:11:37.509Z,40.09
2023-03-14T23:14:08.353Z,40.62
2023-03-14T23:16:41.771Z,37.12
2023-03-14T23:19:12.966Z,35.20
2023-03-14T23:21:44.700Z,35.92
2023-03-14T23:24:16.569Z,34.81
2023-03-14T23:26:47.992Z,35.27
2023-03-14T23:29:18.844Z,33.22
2023-03-14T23:31:51.111Z,35.71
2023-03-14T23:34:23.434Z,34.98
2023-03-14T23:36:54.315Z,33.10
2023-03-14T23:39:26.017Z,31.48
2023-03-14T23:41:56.597Z,33.12
2023-03-14T23:44:29.222Z,32.68
2023-03-14T23:47:01.514Z,33.84
2023-03-14T23:49:35.368Z,32.14
2023-03-14T23:52:06.277Z,31.91
2023-03-14T23:54:38.922Z,32.53
2023-03-14T23:57:10.337Z,31.02
2023-03-14T23:59:43.506Z,34.14
